sensor_id;sensor_type;location;lat;lon;timestamp;pressure;altitude;pressure_sealevel;temperature;humidity
66164;BME280;52962;51.088;3.096;2022-12-18T00:02:22;102412.78;;;-4.64;100.00
66164;BME280;52962;51.088;3.096;2022-12-18T00:04:50;102407.75;;;-4.71;100.00
66164;BME280;52962;51.088;3.096;2022-12-18T00:07:18;102413.03;;;-4.69;100.00
66164;BME280;52962;51.088;3.096;2022-12-18T00:09:46;102404.41;;;-4.70;100.00
66164;BME280;52962;51.088;3.096;2022-12-18T00:12:14;102401.84;;;-4.70;100.00
66164;BME280;52962;51.088;3.096;2022-12-18T00:14:42;102394.72;;;-4.72;100.00
66164;BME280;52962;51.088;3.096;2022-12-18T00:17:11;102393.66;;;-4.74;100.00
66164;BME280;52962;51.088;3.096;2022-12-18T00:19:39;102396.06;;;-4.76;100.00
66164;BME280;52962;51.088;3.096;2022-12-18T00:22:07;102399.38;;;-4.77;100.00
66164;BME280;52962;51.088;3.096;2022-12-18T00:24:35;102404.53;;;-4.77;100.00
66164;BME280;52962;51.088;3.096;2022-12-18T00:27:03;102407.50;;;-4.81;100.00
66164;BME280;52962;51.088;3.096;2022-12-18T00:29:31;102404.19;;;-4.80;100.00
66164;BME280;52962;51.088;3.096;2022-12-18T00:31:58;102402.69;;;-4.78;100.00
66164;BME280;52962;51.088;3.096;2022-12-18T00:34:28;102416.28;;;-4.79;100.00
66164;BME280;52962;51.088;3.096;2022-12-18T00:36:56;102412.81;;;-4.79;100.00
66164;BME280;52962;51.088;3.096;2022-12-18T00:39:24;102407.50;;;-4.81;100.00
66164;BME280;52962;51.088;3.096;2022-12-18T00:41:51;102397.97;;;-4.82;100.00
66164;BME280;52962;51.088;3.096;2022-12-18T00:44:37;102404.47;;;-4.85;100.00
66164;BME280;52962;51.088;3.096;2022-12-18T00:47:05;102399.31;;;-4.85;100.00
66164;BME280;52962;51.088;3.096;2022-12-18T00:49:34;102391.44;;;-4.87;100.00
66164;BME280;52962;51.088;3.096;2022-12-18T00:52:02;102393.84;;;-4.88;100.00
66164;BME280;52962;51.088;3.096;2022-12-18T00:54:30;102392.03;;;-4.89;100.00
66164;BME280;52962;51.088;3.096;2022-12-18T00:56:58;102394.09;;;-4.94;100.00
66164;BME280;52962;51.088;3.096;2022-12-18T00:59:25;102394.84;;;-4.95;100.00
66164;BME280;52962;51.088;3.096;2022-12-18T01:01:53;102393.78;;;-4.97;100.00
66164;BME280;52962;51.088;3.096;2022-12-18T01:04:21;102400.41;;;-4.99;100.00
66164;BME280;52962;51.088;3.096;2022-12-18T01:06:51;102405.81;;;-5.05;100.00
66164;BME280;52962;51.088;3.096;2022-12-18T01:09:18;102404.00;;;-5.06;100.00
66164;BME280;52962;51.088;3.096;2022-12-18T01:11:46;102410.47;;;-5.09;100.00
66164;BME280;52962;51.088;3.096;2022-12-18T01:14:14;102422.06;;;-5.13;100.00
66164;BME280;52962;51.088;3.096;2022-12-18T01:16:42;102415.09;;;-5.14;100.00
66164;BME280;52962;51.088;3.096;2022-12-18T01:19:10;102423.56;;;-5.15;100.00
66164;BME280;52962;51.088;3.096;2022-12-18T01:21:39;102417.50;;;-5.15;100.00
66164;BME280;52962;51.088;3.096;2022-12-18T01:24:10;102420.81;;;-5.16;100.00
66164;BME280;52962;51.088;3.096;2022-12-18T01:26:39;102418.41;;;-5.15;100.00
66164;BME280;52962;51.088;3.096;2022-12-18T01:29:06;102428.34;;;-5.18;100.00
66164;BME280;52962;51.088;3.096;2022-12-18T01:31:34;102418.69;;;-5.20;100.00
66164;BME280;52962;51.088;3.096;2022-12-18T01:34:04;102419.88;;;-5.25;100.00
66164;BME280;52962;51.088;3.096;2022-12-18T01:36:33;102420.28;;;-5.30;100.00
66164;BME280;52962;51.088;3.096;2022-12-18T01:39:03;102427.66;;;-5.33;100.00
66164;BME280;52962;51.088;3.096;2022-12-18T01:41:33;102411.00;;;-5.36;100.00
66164;BME280;52962;51.088;3.096;2022-12-18T01:47:24;102411.25;;;-5.42;100.00
66164;BME280;52962;51.088;3.096;2022-12-18T01:49:54;102406.44;;;-5.39;100.00
66164;BME280;52962;51.088;3.096;2022-12-18T01:52:24;102396.50;;;-5.36;100.00
66164;BME280;52962;51.088;3.096;2022-12-18T01:54:54;102398.91;;;-5.37;100.00
66164;BME280;52962;51.088;3.096;2022-12-18T01:57:25;102399.47;;;-5.40;100.00
66164;BME280;52962;51.088;3.096;2022-12-18T01:59:57;102396.91;;;-5.40;100.00
66164;BME280;52962;51.088;3.096;2022-12-18T02:02:29;102388.47;;;-5.39;100.00
66164;BME280;52962;51.088;3.096;2022-12-18T02:04:58;102393.59;;;-5.39;100.00
66164;BME280;52962;51.088;3.096;2022-12-18T02:07:33;102390.69;;;-5.42;100.00
66164;BME280;52962;51.088;3.096;2022-12-18T02:10:09;102388.31;;;-5.40;100.00
66164;BME280;52962;51.088;3.096;2022-12-18T02:12:48;102376.78;;;-5.44;100.00
66164;BME280;52962;51.088;3.096;2022-12-18T02:15:24;102376.22;;;-5.41;100.00
66164;BME280;52962;51.088;3.096;2022-12-18T02:17:58;102379.53;;;-5.42;100.00
66164;BME280;52962;51.088;3.096;2022-12-18T02:20:35;102369.59;;;-5.39;100.00
66164;BME280;52962;51.088;3.096;2022-12-18T02:23:11;102371.41;;;-5.38;100.00
66164;BME280;52962;51.088;3.096;2022-12-18T02:26:05;102373.81;;;-5.40;100.00
66164;BME280;52962;51.088;3.096;2022-12-18T02:28:38;102373.81;;;-5.40;100.00
66164;BME280;52962;51.088;3.096;2022-12-18T02:31:11;102368.34;;;-5.43;100.00
66164;BME280;52962;51.088;3.096;2022-12-18T02:33:43;102369.91;;;-5.36;100.00
66164;BME280;52962;51.088;3.096;2022-12-18T02:36:13;102368.09;;;-5.37;100.00
66164;BME280;52962;51.088;3.096;2022-12-18T02:38:44;102359.31;;;-5.39;100.00
66164;BME280;52962;51.088;3.096;2022-12-18T02:41:16;102364.28;;;-5.41;100.00
66164;BME280;52962;51.088;3.096;2022-12-18T02:43:47;102361.72;;;-5.41;100.00
66164;BME280;52962;51.088;3.096;2022-12-18T02:46:37;102355.00;;;-5.47;100.00
66164;BME280;52962;51.088;3.096;2022-12-18T02:49:14;102355.25;;;-5.53;100.00
66164;BME280;52962;51.088;3.096;2022-12-18T02:51:51;102341.03;;;-5.58;100.00
66164;BME280;52962;51.088;3.096;2022-12-18T02:54:26;102338.63;;;-5.56;100.00
66164;BME280;52962;51.088;3.096;2022-12-18T02:57:03;102332.91;;;-5.54;100.00
66164;BME280;52962;51.088;3.096;2022-12-18T02:59:40;102331.81;;;-5.56;100.00
66164;BME280;52962;51.088;3.096;2022-12-18T03:02:17;102322.31;;;-5.57;100.00
66164;BME280;52962;51.088;3.096;2022-12-18T03:04:49;102313.69;;;-5.57;100.00
66164;BME280;52962;51.088;3.096;2022-12-18T03:07:25;102312.19;;;-5.55;100.00
66164;BME280;52962;51.088;3.096;2022-12-18T03:09:54;102317.16;;;-5.57;100.00
66164;BME280;52962;51.088;3.096;2022-12-18T03:12:29;102315.69;;;-5.55;100.00
66164;BME280;52962;51.088;3.096;2022-12-18T03:15:03;102307.97;;;-5.55;100.00
66164;BME280;52962;51.088;3.096;2022-12-18T03:17:33;102302.09;;;-5.54;100.00
66164;BME280;52962;51.088;3.096;2022-12-18T03:20:06;102308.72;;;-5.56;100.00
66164;BME280;52962;51.088;3.096;2022-12-18T03:22:35;102307.81;;;-5.56;100.00
66164;BME280;52962;51.088;3.096;2022-12-18T03:25:08;102308.88;;;-5.54;100.00
66164;BME280;52962;51.088;3.096;2022-12-18T03:27:42;102310.53;;;-5.55;100.00
66164;BME280;52962;51.088;3.096;2022-12-18T03:30:13;102308.72;;;-5.56;100.00
66164;BME280;52962;51.088;3.096;2022-12-18T03:32:46;102309.06;;;-5.53;100.00
66164;BME280;52962;51.088;3.096;2022-12-18T03:35:21;102310.53;;;-5.55;100.00
66164;BME280;52962;51.088;3.096;2022-12-18T03:37:50;102314.59;;;-5.57;100.00
66164;BME280;52962;51.088;3.096;2022-12-18T03:40:19;102319.91;;;-5.55;100.00
66164;BME280;52962;51.088;3.096;2022-12-18T03:42:52;102321.56;;;-5.56;100.00
66164;BME280;52962;51.088;3.096;2022-12-18T03:45:26;102318.09;;;-5.56;100.00
66164;BME280;52962;51.088;3.096;2022-12-18T03:48:00;102326.53;;;-5.57;100.00
66164;BME280;52962;51.088;3.096;2022-12-18T03:50:37;102326.38;;;-5.59;100.00
66164;BME280;52962;51.088;3.096;2022-12-18T03:53:15;102339.19;;;-5.59;100.00
66164;BME280;52962;51.088;3.096;2022-12-18T03:55:45;102343.59;;;-5.58;100.00
66164;BME280;52962;51.088;3.096;2022-12-18T03:58:19;102337.03;;;-5.63;100.00
66164;BME280;52962;51.088;3.096;2022-12-18T04:00:50;102341.50;;;-5.69;100.00
66164;BME280;52962;51.088;3.096;2022-12-18T04:03:20;102342.50;;;-5.76;100.00
66164;BME280;52962;51.088;3.096;2022-12-18T04:05:54;102345.31;;;-5.81;100.00
66164;BME280;52962;51.088;3.096;2022-12-18T04:08:23;102350.84;;;-5.85;100.00
66164;BME280;52962;51.088;3.096;2022-12-18T04:10:52;102363.22;;;-5.90;100.00
66164;BME280;52962;51.088;3.096;2022-12-18T04:13:28;102358.66;;;-5.93;100.00
66164;BME280;52962;51.088;3.096;2022-12-18T04:15:56;102358.31;;;-5.96;100.00
66164;BME280;52962;51.088;3.096;2022-12-18T04:18:24;102348.81;;;-5.97;100.00
66164;BME280;52962;51.088;3.096;2022-12-18T04:20:52;102350.13;;;-6.00;100.00
66164;BME280;52962;51.088;3.096;2022-12-18T04:23:21;102339.69;;;-6.02;100.00
66164;BME280;52962;51.088;3.096;2022-12-18T04:25:49;102345.22;;;-6.06;100.00
66164;BME280;52962;51.088;3.096;2022-12-18T04:28:17;102341.91;;;-6.05;100.00
66164;BME280;52962;51.088;3.096;2022-12-18T04:30:47;102338.63;;;-6.04;100.00
66164;BME280;52962;51.088;3.096;2022-12-18T04:33:14;102341.19;;;-6.04;100.00
66164;BME280;52962;51.088;3.096;2022-12-18T04:35:44;102337.53;;;-6.06;100.00
66164;BME280;52962;51.088;3.096;2022-12-18T04:38:12;102340.50;;;-6.10;100.00
66164;BME280;52962;51.088;3.096;2022-12-18T04:40:41;102344.38;;;-6.13;100.00
66164;BME280;52962;51.088;3.096;2022-12-18T04:43:09;102336.53;;;-6.15;100.00
66164;BME280;52962;51.088;3.096;2022-12-18T04:45:37;102338.34;;;-6.14;100.00
66164;BME280;52962;51.088;3.096;2022-12-18T04:48:07;102338.34;;;-6.14;100.00
66164;BME280;52962;51.088;3.096;2022-12-18T04:50:35;102330.66;;;-6.14;100.00
66164;BME280;52962;51.088;3.096;2022-12-18T04:53:03;102328.50;;;-6.18;100.00
66164;BME280;52962;51.088;3.096;2022-12-18T04:55:31;102323.94;;;-6.20;100.00
66164;BME280;52962;51.088;3.096;2022-12-18T04:57:58;102330.72;;;-6.21;100.00
66164;BME280;52962;51.088;3.096;2022-12-18T05:00:26;102324.69;;;-6.21;100.00
66164;BME280;52962;51.088;3.096;2022-12-18T05:02:54;102318.81;;;-6.20;100.00
66164;BME280;52962;51.088;3.096;2022-12-18T05:05:24;102312.53;;;-6.15;100.00
66164;BME280;52962;51.088;3.096;2022-12-18T05:07:52;102311.22;;;-6.12;100.00
66164;BME280;52962;51.088;3.096;2022-12-18T05:10:20;102318.16;;;-6.11;100.00
66164;BME280;52962;51.088;3.096;2022-12-18T05:12:48;102312.13;;;-6.11;100.00
66164;BME280;52962;51.088;3.096;2022-12-18T05:15:28;102313.78;;;-6.12;100.00
66164;BME280;52962;51.088;3.096;2022-12-18T05:17:57;102318.91;;;-6.12;100.00
66164;BME280;52962;51.088;3.096;2022-12-18T05:20:27;102325.13;;;-6.10;100.00
66164;BME280;52962;51.088;3.096;2022-12-18T05:22:55;102324.38;;;-6.09;100.00
66164;BME280;52962;51.088;3.096;2022-12-18T05:25:23;102338.09;;;-6.08;100.00
66164;BME280;52962;51.088;3.096;2022-12-18T05:27:51;102345.22;;;-6.06;100.00
66164;BME280;52962;51.088;3.096;2022-12-18T05:30:19;102343.41;;;-6.07;100.00
66164;BME280;52962;51.088;3.096;2022-12-18T05:32:47;102342.91;;;-6.11;100.00
66164;BME280;52962;51.088;3.096;2022-12-18T05:35:16;102339.09;;;-6.15;100.00
66164;BME280;52962;51.088;3.096;2022-12-18T05:37:46;102328.09;;;-6.14;100.00
66164;BME280;52962;51.088;3.096;2022-12-18T05:40:14;102325.69;;;-6.12;100.00
66164;BME280;52962;51.088;3.096;2022-12-18T05:42:42;102319.66;;;-6.13;100.00
66164;BME280;52962;51.088;3.096;2022-12-18T05:45:10;102314.69;;;-6.11;100.00
66164;BME280;52962;51.088;3.096;2022-12-18T05:47:37;102304.94;;;-6.07;100.00
66164;BME280;52962;51.088;3.096;2022-12-18T05:50:07;102308.59;;;-6.05;100.00
66164;BME280;52962;51.088;3.096;2022-12-18T05:52:35;102303.44;;;-6.05;100.00
66164;BME280;52962;51.088;3.096;2022-12-18T05:55:04;102293.19;;;-6.05;100.00
66164;BME280;52962;51.088;3.096;2022-12-18T05:57:32;102284.41;;;-6.07;100.00
66164;BME280;52962;51.088;3.096;2022-12-18T06:00:00;102284.41;;;-6.07;100.00
66164;BME280;52962;51.088;3.096;2022-12-18T06:02:28;102281.09;;;-6.06;100.00
66164;BME280;52962;51.088;3.096;2022-12-18T06:04:56;102274.50;;;-6.04;100.00
66164;BME280;52962;51.088;3.096;2022-12-18T06:07:24;102277.22;;;-6.02;100.00
66164;BME280;52962;51.088;3.096;2022-12-18T06:09:52;102290.38;;;-5.99;100.00
66164;BME280;52962;51.088;3.096;2022-12-18T06:12:21;102286.91;;;-6.00;100.00
66164;BME280;52962;51.088;3.096;2022-12-18T06:14:49;102284.91;;;-6.02;100.00
66164;BME280;52962;51.088;3.096;2022-12-18T06:17:17;102276.72;;;-6.07;100.00
66164;BME280;52962;51.088;3.096;2022-12-18T06:19:45;102264.22;;;-6.04;100.00
66164;BME280;52962;51.088;3.096;2022-12-18T06:22:13;102260.94;;;-6.03;100.00
66164;BME280;52962;51.088;3.096;2022-12-18T06:24:41;102254.88;;;-6.03;100.00
66164;BME280;52962;51.088;3.096;2022-12-18T06:27:09;102245.53;;;-6.03;100.00
66164;BME280;52962;51.088;3.096;2022-12-18T06:29:38;102242.56;;;-5.99;100.00
66164;BME280;52962;51.088;3.096;2022-12-18T06:32:06;102234.44;;;-5.95;100.00
66164;BME280;52962;51.088;3.096;2022-12-18T06:34:34;102234.78;;;-5.91;100.00
66164;BME280;52962;51.088;3.096;2022-12-18T06:37:04;102220.88;;;-5.94;100.00
66164;BME280;52962;51.088;3.096;2022-12-18T06:39:32;102211.53;;;-5.93;100.00
66164;BME280;52962;51.088;3.096;2022-12-18T06:42:00;102214.25;;;-5.91;100.00
66164;BME280;52962;51.088;3.096;2022-12-18T06:44:31;102211.09;;;-5.89;100.00
66164;BME280;52962;51.088;3.096;2022-12-18T06:47:00;102211.41;;;-5.86;100.00
66164;BME280;52962;51.088;3.096;2022-12-18T06:49:28;102208.25;;;-5.83;100.00
66164;BME280;52962;51.088;3.096;2022-12-18T06:51:56;102192.28;;;-5.81;100.00
66164;BME280;52962;51.088;3.096;2022-12-18T06:54:24;102191.13;;;-5.76;100.00
66164;BME280;52962;51.088;3.096;2022-12-18T06:56:52;102191.44;;;-5.73;100.00
66164;BME280;52962;51.088;3.096;2022-12-18T06:59:20;102178.44;;;-5.74;100.00
66164;BME280;52962;51.088;3.096;2022-12-18T07:01:47;102171.50;;;-5.75;100.00
66164;BME280;52962;51.088;3.096;2022-12-18T07:04:17;102174.66;;;-5.78;100.00
66164;BME280;52962;51.088;3.096;2022-12-18T07:06:45;102173.56;;;-5.80;100.00
66164;BME280;52962;51.088;3.096;2022-12-18T07:09:13;102166.63;;;-5.81;100.00
66164;BME280;52962;51.088;3.096;2022-12-18T07:11:41;102165.13;;;-5.79;100.00
66164;BME280;52962;51.088;3.096;2022-12-18T07:14:09;102157.91;;;-5.74;100.00
66164;BME280;52962;51.088;3.096;2022-12-18T07:16:37;102146.16;;;-5.72;100.00
66164;BME280;52962;51.088;3.096;2022-12-18T07:19:05;102147.06;;;-5.72;100.00
66164;BME280;52962;51.088;3.096;2022-12-18T07:21:34;102139.22;;;-5.73;100.00
66164;BME280;52962;51.088;3.096;2022-12-18T07:24:02;102137.38;;;-5.74;100.00
66164;BME280;52962;51.088;3.096;2022-12-18T07:26:31;102141.03;;;-5.72;100.00
66164;BME280;52962;51.088;3.096;2022-12-18T07:28:58;102145.56;;;-5.70;100.00
66164;BME280;52962;51.088;3.096;2022-12-18T07:31:27;102160.38;;;-5.67;100.00
66164;BME280;52962;51.088;3.096;2022-12-18T07:33:55;102165.84;;;-5.64;100.00
66164;BME280;52962;51.088;3.096;2022-12-18T07:36:23;102167.34;;;-5.66;100.00
66164;BME280;52962;51.088;3.096;2022-12-18T07:38:53;102168.50;;;-5.71;100.00
66164;BME280;52962;51.088;3.096;2022-12-18T07:41:21;102158.09;;;-5.73;100.00
66164;BME280;52962;51.088;3.096;2022-12-18T07:43:49;102161.56;;;-5.72;100.00
66164;BME280;52962;51.088;3.096;2022-12-18T07:46:18;102166.84;;;-5.71;100.00
66164;BME280;52962;51.088;3.096;2022-12-18T07:48:46;102165.84;;;-5.64;100.00
66164;BME280;52962;51.088;3.096;2022-12-18T07:51:16;102156.53;;;-5.55;100.00
66164;BME280;52962;51.088;3.096;2022-12-18T07:53:45;102162.91;;;-5.51;100.00
66164;BME280;52962;51.088;3.096;2022-12-18T07:56:20;102165.94;;;-5.47;100.00
66164;BME280;52962;51.088;3.096;2022-12-18T07:58:57;102178.69;;;-5.40;100.00
66164;BME280;52962;51.088;3.096;2022-12-18T08:01:25;102185.97;;;-5.36;100.00
66164;BME280;52962;51.088;3.096;2022-12-18T08:03:53;102184.78;;;-5.31;100.00
66164;BME280;52962;51.088;3.096;2022-12-18T08:06:21;102181.47;;;-5.30;100.00
66164;BME280;52962;51.088;3.096;2022-12-18T08:08:51;102169.53;;;-5.29;100.00
66164;BME280;52962;51.088;3.096;2022-12-18T08:11:23;102161.56;;;-5.23;100.00
66164;BME280;52962;51.088;3.096;2022-12-18T08:13:51;102164.56;;;-5.19;100.00
66164;BME280;52962;51.088;3.096;2022-12-18T08:16:19;102150.69;;;-5.12;100.00
66164;BME280;52962;51.088;3.096;2022-12-18T08:18:48;102157.69;;;-5.03;100.00
66164;BME280;52962;51.088;3.096;2022-12-18T08:21:19;102154.69;;;-4.99;100.00
66164;BME280;52962;51.088;3.096;2022-12-18T08:23:50;102152.59;;;-4.94;100.00
66164;BME280;52962;51.088;3.096;2022-12-18T08:26:18;102150.50;;;-4.89;100.00
66164;BME280;52962;51.088;3.096;2022-12-18T08:28:49;102158.50;;;-4.86;100.00
66164;BME280;52962;51.088;3.096;2022-12-18T08:31:17;102149.47;;;-4.83;100.00
66164;BME280;52962;51.088;3.096;2022-12-18T08:33:48;102156.88;;;-4.77;100.00
66164;BME280;52962;51.088;3.096;2022-12-18T08:36:17;102155.53;;;-4.74;100.00
66164;BME280;52962;51.088;3.096;2022-12-18T08:38:45;102155.09;;;-4.70;100.00
66164;BME280;52962;51.088;3.096;2022-12-18T08:41:14;102154.66;;;-4.66;100.00
66164;BME280;52962;51.088;3.096;2022-12-18T08:43:43;102148.00;;;-4.64;100.00
66164;BME280;52962;51.088;3.096;2022-12-18T08:46:34;102142.41;;;-4.59;100.00
66164;BME280;52962;51.088;3.096;2022-12-18T08:49:03;102139.56;;;-4.54;100.00
66164;BME280;52962;51.088;3.096;2022-12-18T08:51:33;102123.84;;;-4.48;100.00
66164;BME280;52962;51.088;3.096;2022-12-18T08:54:02;102132.78;;;-4.45;100.00
66164;BME280;52962;51.088;3.096;2022-12-18T08:56:32;102127.03;;;-4.42;100.00
66164;BME280;52962;51.088;3.096;2022-12-18T08:59:01;102119.03;;;-4.37;100.00
66164;BME280;52962;51.088;3.096;2022-12-18T09:01:29;102117.22;;;-4.29;100.00
66164;BME280;52962;51.088;3.096;2022-12-18T09:03:59;102110.84;;;-4.24;100.00
66164;BME280;52962;51.088;3.096;2022-12-18T09:06:26;102109.66;;;-4.19;100.00
66164;BME280;52962;51.088;3.096;2022-12-18T09:08:54;102115.06;;;-4.16;100.00
66164;BME280;52962;51.088;3.096;2022-12-18T09:11:25;102106.44;;;-4.08;100.00
66164;BME280;52962;51.088;3.096;2022-12-18T09:13:55;102106.88;;;-4.03;100.00
66164;BME280;52962;51.088;3.096;2022-12-18T09:16:23;102110.06;;;-3.97;100.00
66164;BME280;52962;51.088;3.096;2022-12-18T09:18:59;102104.59;;;-3.91;100.00
66164;BME280;52962;51.088;3.096;2022-12-18T09:21:29;102103.69;;;-3.83;100.00
66164;BME280;52962;51.088;3.096;2022-12-18T09:23:59;102091.88;;;-3.81;100.00
66164;BME280;52962;51.088;3.096;2022-12-18T09:26:27;102097.63;;;-3.75;100.00
66164;BME280;52962;51.088;3.096;2022-12-18T09:28:56;102095.50;;;-3.71;100.00
66164;BME280;52962;51.088;3.096;2022-12-18T09:31:24;102077.91;;;-3.66;100.00
66164;BME280;52962;51.088;3.096;2022-12-18T09:33:54;102073.97;;;-3.63;100.00
66164;BME280;52962;51.088;3.096;2022-12-18T09:36:24;102071.84;;;-3.58;100.00
66164;BME280;52962;51.088;3.096;2022-12-18T09:38:51;102076.53;;;-3.54;100.00
66164;BME280;52962;51.088;3.096;2022-12-18T09:41:33;102069.38;;;-3.48;100.00
66164;BME280;52962;51.088;3.096;2022-12-18T09:44:10;102075.72;;;-3.44;100.00
66164;BME280;52962;51.088;3.096;2022-12-18T09:46:44;102071.94;;;-3.39;100.00
66164;BME280;52962;51.088;3.096;2022-12-18T09:49:15;102072.69;;;-3.40;100.00
66164;BME280;52962;51.088;3.096;2022-12-18T09:51:51;102072.66;;;-3.32;100.00
66164;BME280;52962;51.088;3.096;2022-12-18T09:54:22;102074.47;;;-3.31;100.00
66164;BME280;52962;51.088;3.096;2022-12-18T09:56:53;102067.19;;;-3.26;100.00
66164;BME280;52962;51.088;3.096;2022-12-18T09:59:25;102063.22;;;-3.22;100.00
66164;BME280;52962;51.088;3.096;2022-12-18T10:01:55;102065.31;;;-3.18;100.00
66164;BME280;52962;51.088;3.096;2022-12-18T10:04:24;102060.47;;;-3.15;100.00
66164;BME280;52962;51.088;3.096;2022-12-18T10:06:58;102051.31;;;-3.12;100.00
66164;BME280;52962;51.088;3.096;2022-12-18T10:09:39;102063.09;;;-3.05;100.00
66164;BME280;52962;51.088;3.096;2022-12-18T10:12:18;102060.81;;;-3.02;100.00
66164;BME280;52962;51.088;3.096;2022-12-18T10:14:53;102058.81;;;-2.96;100.00
66164;BME280;52962;51.088;3.096;2022-12-18T10:17:29;102050.88;;;-2.89;100.00
66164;BME280;52962;51.088;3.096;2022-12-18T10:20:12;102063.44;;;-2.83;100.00
66164;BME280;52962;51.088;3.096;2022-12-18T10:22:49;102059.31;;;-2.81;100.00
66164;BME280;52962;51.088;3.096;2022-12-18T10:25:23;102059.63;;;-2.78;100.00
66164;BME280;52962;51.088;3.096;2022-12-18T10:27:55;102051.41;;;-2.74;100.00
66164;BME280;52962;51.088;3.096;2022-12-18T10:30:25;102055.31;;;-2.69;100.00
66164;BME280;52962;51.088;3.096;2022-12-18T10:32:53;102056.34;;;-2.67;100.00
66164;BME280;52962;51.088;3.096;2022-12-18T10:35:24;102049.66;;;-2.65;100.00
66164;BME280;52962;51.088;3.096;2022-12-18T10:38:03;102049.31;;;-2.59;100.00
66164;BME280;52962;51.088;3.096;2022-12-18T10:40:32;102041.88;;;-2.56;100.00
66164;BME280;52962;51.088;3.096;2022-12-18T10:43:04;102035.94;;;-2.55;100.00
66164;BME280;52962;51.088;3.096;2022-12-18T10:45:32;102035.47;;;-2.51;100.00
66164;BME280;52962;51.088;3.096;2022-12-18T10:48:01;102032.13;;;-2.50;100.00
66164;BME280;52962;51.088;3.096;2022-12-18T10:50:34;102035.75;;;-2.48;100.00
66164;BME280;52962;51.088;3.096;2022-12-18T10:53:27;102036.91;;;-2.45;100.00
66164;BME280;52962;51.088;3.096;2022-12-18T10:55:58;102029.03;;;-2.46;100.00
66164;BME280;52962;51.088;3.096;2022-12-18T10:58:29;102028.41;;;-2.44;100.00
66164;BME280;52962;51.088;3.096;2022-12-18T11:01:08;102018.38;;;-2.41;100.00
66164;BME280;52962;51.088;3.096;2022-12-18T11:03:37;102019.56;;;-2.37;100.00
66164;BME280;52962;51.088;3.096;2022-12-18T11:06:08;102011.06;;;-2.36;100.00
66164;BME280;52962;51.088;3.096;2022-12-18T11:08:39;102010.44;;;-2.34;100.00
66164;BME280;52962;51.088;3.096;2022-12-18T11:11:19;102009.16;;;-2.28;100.00
66164;BME280;52962;51.088;3.096;2022-12-18T11:13:59;102005.19;;;-2.25;100.00
66164;BME280;52962;51.088;3.096;2022-12-18T11:16:33;102004.69;;;-2.21;100.00
66164;BME280;52962;51.088;3.096;2022-12-18T11:19:19;102009.34;;;-2.17;100.00
66164;BME280;52962;51.088;3.096;2022-12-18T11:21:49;102005.38;;;-2.13;100.00
66164;BME280;52962;51.088;3.096;2022-12-18T11:24:27;102012.47;;;-2.11;100.00
66164;BME280;52962;51.088;3.096;2022-12-18T11:26:58;101997.91;;;-2.10;100.00
66164;BME280;52962;51.088;3.096;2022-12-18T11:29:38;101991.44;;;-2.05;100.00
66164;BME280;52962;51.088;3.096;2022-12-18T11:32:36;101981.25;;;-2.04;100.00
66164;BME280;52962;51.088;3.096;2022-12-18T11:35:13;101972.38;;;-1.97;100.00
66164;BME280;52962;51.088;3.096;2022-12-18T11:37:47;101974.31;;;-1.94;100.00
66164;BME280;52962;51.088;3.096;2022-12-18T11:40:20;101971.25;;;-1.90;100.00
66164;BME280;52962;51.088;3.096;2022-12-18T11:42:53;101969.81;;;-1.87;100.00
66164;BME280;52962;51.088;3.096;2022-12-18T11:45:26;101974.63;;;-1.81;100.00
66164;BME280;52962;51.088;3.096;2022-12-18T11:47:59;101971.28;;;-1.80;100.00
66164;BME280;52962;51.088;3.096;2022-12-18T11:50:45;101967.91;;;-1.79;100.00
66164;BME280;52962;51.088;3.096;2022-12-18T11:53:14;101970.25;;;-1.72;100.00
66164;BME280;52962;51.088;3.096;2022-12-18T11:55:51;101952.59;;;-1.68;100.00
66164;BME280;52962;51.088;3.096;2022-12-18T11:58:35;101950.66;;;-1.60;100.00
66164;BME280;52962;51.088;3.096;2022-12-18T12:01:16;101945.75;;;-1.57;100.00
66164;BME280;52962;51.088;3.096;2022-12-18T12:03:58;101946.81;;;-1.55;100.00
66164;BME280;52962;51.088;3.096;2022-12-18T12:06:32;101948.75;;;-1.52;100.00
66164;BME280;52962;51.088;3.096;2022-12-18T12:09:09;101943.44;;;-1.54;100.00
66164;BME280;52962;51.088;3.096;2022-12-18T12:11:50;101933.38;;;-1.51;100.00
66164;BME280;52962;51.088;3.096;2022-12-18T12:14:42;101929.50;;;-1.46;100.00
66164;BME280;52962;51.088;3.096;2022-12-18T12:17:18;101935.56;;;-1.45;100.00
66164;BME280;52962;51.088;3.096;2022-12-18T12:19:55;101939.47;;;-1.40;100.00
66164;BME280;52962;51.088;3.096;2022-12-18T12:22:33;101934.41;;;-1.39;100.00
66164;BME280;52962;51.088;3.096;2022-12-18T12:25:20;101929.50;;;-1.36;100.00
66164;BME280;52962;51.088;3.096;2022-12-18T12:27:57;101937.91;;;-1.38;100.00
66164;BME280;52962;51.088;3.096;2022-12-18T12:30:36;101940.50;;;-1.38;100.00
66164;BME280;52962;51.088;3.096;2022-12-18T12:33:20;101936.22;;;-1.38;100.00
66164;BME280;52962;51.088;3.096;2022-12-18T12:35:54;101937.25;;;-1.36;100.00
66164;BME280;52962;51.088;3.096;2022-12-18T12:38:25;101932.09;;;-1.36;100.00
66164;BME280;52962;51.088;3.096;2022-12-18T12:40:59;101932.34;;;-1.33;100.00
66164;BME280;52962;51.088;3.096;2022-12-18T12:43:37;101933.13;;;-1.34;100.00
66164;BME280;52962;51.088;3.096;2022-12-18T12:46:17;101934.16;;;-1.32;100.00
66164;BME280;52962;51.088;3.096;2022-12-18T12:48:49;101922.28;;;-1.29;100.00
66164;BME280;52962;51.088;3.096;2022-12-18T12:51:21;101914.53;;;-1.29;100.00
66164;BME280;52962;51.088;3.096;2022-12-18T12:53:50;101909.38;;;-1.29;100.00
66164;BME280;52962;51.088;3.096;2022-12-18T12:56:20;101901.88;;;-1.26;100.00
66164;BME280;52962;51.088;3.096;2022-12-18T12:59:04;101903.16;;;-1.32;100.00
66164;BME280;52962;51.088;3.096;2022-12-18T13:01:41;101900.84;;;-1.28;100.00
66164;BME280;52962;51.088;3.096;2022-12-18T13:04:21;101887.91;;;-1.28;100.00
66164;BME280;52962;51.088;3.096;2022-12-18T13:06:59;101886.34;;;-1.26;100.00